createdAt,value
2018-03-11T00:00:53.884Z,0
2018-03-11T00:01:53.398Z,0
2018-03-11T00:02:53.412Z,0
2018-03-11T00:03:53.940Z,0
2018-03-11T00:04:53.705Z,0
2018-03-11T00:05:54.028Z,0
2018-03-11T00:06:54.249Z,0
2018-03-11T00:07:53.777Z,0
2018-03-11T00:08:54.300Z,0
2018-03-11T00:09:54.060Z,0
2018-03-11T00:10:53.818Z,0
2018-03-11T00:11:53.842Z,0
2018-03-11T00:12:54.108Z,0
2018-03-11T00:13:54.393Z,0
2018-03-11T00:14:53.936Z,0
2018-03-11T00:15:54.422Z,0
2018-03-11T00:16:54.197Z,0
2018-03-11T00:17:54.467Z,0
2018-03-11T00:18:54.235Z,0
2018-03-11T00:19:54.253Z,0
2018-03-11T00:20:54.061Z,0
2018-03-11T00:21:54.282Z,0
2018-03-11T00:22:54.316Z,0
2018-03-11T00:23:54.318Z,0
2018-03-11T00:24:54.590Z,0
2018-03-11T00:25:54.605Z,0
2018-03-11T00:26:54.131Z,0
2018-03-11T00:27:54.652Z,0
2018-03-11T00:28:54.413Z,0
2018-03-11T00:29:54.434Z,0
2018-03-11T00:30:54.451Z,0
2018-03-11T00:31:54.729Z,0
2018-03-11T00:32:54.234Z,0
2018-03-11T00:33:54.764Z,0
2018-03-11T00:34:54.529Z,0
2018-03-11T00:35:54.337Z,0
2018-03-11T00:36:54.565Z,0
2018-03-11T00:37:54.289Z,0
2018-03-11T00:38:54.311Z,0
2018-03-11T00:39:54.610Z,0
2018-03-11T00:40:54.631Z,0
2018-03-11T00:41:54.401Z,0
2018-03-11T00:42:54.673Z,0
2018-03-11T00:43:54.183Z,0
2018-03-11T00:44:54.964Z,0
2018-03-11T00:45:54.739Z,0
2018-03-11T00:46:54.748Z,0
2018-03-11T00:47:54.775Z,0
2018-03-11T00:48:54.787Z,0
2018-03-11T00:49:54.803Z,0
2018-03-11T00:50:54.871Z,0
2018-03-11T00:51:54.583Z,0
2018-03-11T00:52:55.116Z,0
2018-03-11T00:53:54.621Z,0
2018-03-11T00:54:54.642Z,0
2018-03-11T00:55:54.908Z,0
2018-03-11T00:56:54.932Z,0
2018-03-11T00:57:54.697Z,0
2018-03-11T00:58:54.716Z,0
2018-03-11T00:59:54.728Z,0
2018-03-11T01:00:55.003Z,0
2018-03-11T01:01:55.019Z,0
2018-03-11T01:02:55.059Z,0
2018-03-11T01:03:54.547Z,0
2018-03-11T01:04:54.825Z,0
2018-03-11T01:05:55.348Z,0
2018-03-11T01:06:55.110Z,0
2018-03-11T01:07:55.180Z,0
2018-03-11T01:08:55.149Z,0
2018-03-11T01:09:54.908Z,0
2018-03-11T01:10:54.929Z,0
2018-03-11T01:11:54.975Z,0
2018-03-11T01:12:54.971Z,0
2018-03-11T01:13:55.496Z,0
2018-03-11T01:14:55.006Z,0
2018-03-11T01:15:55.526Z,0
2018-03-11T01:16:55.555Z,0
2018-03-11T01:17:55.062Z,0
2018-03-11T01:18:55.580Z,0
2018-03-11T01:19:54.839Z,0
2018-03-11T01:20:55.618Z,0
2018-03-11T01:21:55.396Z,0
2018-03-11T01:22:55.464Z,0
2018-03-11T01:23:55.413Z,0
2018-03-11T01:24:55.693Z,0
2018-03-11T01:25:55.453Z,0
2018-03-11T01:26:55.724Z,0
2018-03-11T01:27:55.753Z,0
2018-03-11T01:28:55.763Z,0
2018-03-11T01:29:55.784Z,0
2018-03-11T01:30:55.281Z,0
2018-03-11T01:31:55.314Z,0
2018-03-11T01:32:55.837Z,0
2018-03-11T01:33:55.864Z,0
2018-03-11T01:34:55.628Z,0
2018-03-11T01:35:55.645Z,0
2018-03-11T01:36:55.935Z,0
2018-03-11T01:37:55.483Z,0
2018-03-11T01:38:55.206Z,0
2018-03-11T01:39:55.968Z,0
2018-03-11T01:40:55.986Z,0
2018-03-11T01:41:56.010Z,0
2018-03-11T01:42:55.529Z,0
2018-03-11T01:43:56.033Z,0
2018-03-11T01:44:55.298Z,0
2018-03-11T01:45:56.077Z,0
2018-03-11T01:46:55.846Z,0
2018-03-11T01:47:55.859Z,0
2018-03-11T01:48:55.879Z,0
2018-03-11T01:49:56.154Z,0
2018-03-11T01:50:55.662Z,0
2018-03-11T01:51:56.185Z,0
2018-03-11T01:52:56.199Z,0
2018-03-11T01:53:55.731Z,0
2018-03-11T01:54:55.990Z,0
2018-03-11T01:55:55.497Z,0
2018-03-11T01:56:56.036Z,0
2018-03-11T01:57:56.035Z,0
2018-03-11T01:58:55.809Z,0
2018-03-11T01:59:56.069Z,0
2018-03-11T02:00:55.847Z,0
2018-03-11T02:01:56.370Z,0
2018-03-11T02:02:56.135Z,0
2018-03-11T02:03:56.152Z,0
2018-03-11T02:04:56.429Z,0
2018-03-11T02:05:55.933Z,0
2018-03-11T02:06:56.214Z,0
2018-03-11T02:07:56.220Z,0
2018-03-11T02:08:56.288Z,0
2018-03-11T02:09:56.261Z,0
2018-03-11T02:10:56.490Z,0
2018-03-11T02:11:56.264Z,0
2018-03-11T02:12:56.532Z,0
2018-03-11T02:13:56.062Z,0
2018-03-11T02:14:56.311Z,0
2018-03-11T02:15:56.619Z,0
2018-03-11T02:16:56.128Z,0
2018-03-11T02:17:55.893Z,0
2018-03-11T02:18:56.425Z,0
2018-03-11T02:19:56.700Z,0
2018-03-11T02:20:55.950Z,0
2018-03-11T02:21:56.473Z,0
2018-03-11T02:22:56.494Z,0
2018-03-11T02:23:56.055Z,0
2018-03-11T02:24:56.787Z,0
2018-03-11T02:25:56.045Z,0
2018-03-11T02:26:56.817Z,0
2018-03-11T02:27:56.587Z,0
2018-03-11T02:28:56.599Z,0
2018-03-11T02:29:56.366Z,0
2018-03-11T02:30:56.383Z,0
2018-03-11T02:31:56.910Z,0
2018-03-11T02:32:56.941Z,0
2018-03-11T02:33:56.991Z,0
2018-03-11T02:34:56.461Z,0
2018-03-11T02:35:57.000Z,0
2018-03-11T02:36:57.003Z,0
2018-03-11T02:37:56.769Z,0
2018-03-11T02:38:57.097Z,0
2018-03-11T02:39:57.058Z,0
2018-03-11T02:40:56.562Z,0
2018-03-11T02:41:56.847Z,0
2018-03-11T02:42:56.854Z,0
2018-03-11T02:43:56.880Z,0
2018-03-11T02:44:56.635Z,0
2018-03-11T02:45:56.656Z,0
2018-03-11T02:46:56.668Z,0
2018-03-11T02:47:56.696Z,0
2018-03-11T02:48:56.969Z,0
2018-03-11T02:49:56.984Z,0
2018-03-11T02:50:56.992Z,0
2018-03-11T02:51:57.268Z,0
2018-03-11T02:52:57.293Z,0
2018-03-11T02:53:56.846Z,0
2018-03-11T02:54:57.056Z,0
2018-03-11T02:55:57.083Z,0
2018-03-11T02:56:57.122Z,0
2018-03-11T02:57:57.119Z,0
2018-03-11T02:58:57.146Z,0
2018-03-11T02:59:56.900Z,0
2018-03-11T03:00:57.190Z,0
2018-03-11T03:01:57.446Z,0
2018-03-11T03:02:57.201Z,0
2018-03-11T03:03:57.485Z,0
2018-03-11T03:04:57.237Z,0
2018-03-11T03:05:57.255Z,0
2018-03-11T03:06:57.288Z,0
2018-03-11T03:07:57.296Z,0
2018-03-11T03:08:57.060Z,0
2018-03-11T03:09:57.398Z,0
2018-03-11T03:10:56.843Z,0
2018-03-11T03:11:57.371Z,0
2018-03-11T03:12:57.133Z,0
2018-03-11T03:13:57.399Z,0
2018-03-11T03:14:57.678Z,0
2018-03-11T03:15:57.693Z,0
2018-03-11T03:16:57.211Z,0
2018-03-11T03:17:57.469Z,0
2018-03-11T03:18:57.491Z,0
2018-03-11T03:19:57.508Z,0
2018-03-11T03:20:57.780Z,0
2018-03-11T03:21:57.540Z,0
2018-03-11T03:22:57.561Z,0
2018-03-11T03:23:57.834Z,0
2018-03-11T03:24:57.393Z,0
2018-03-11T03:25:57.358Z,0
2018-03-11T03:26:57.376Z,0
2018-03-11T03:27:57.657Z,0
2018-03-11T03:28:57.670Z,0
2018-03-11T03:29:57.796Z,0
2018-03-11T03:30:57.642Z,0
2018-03-11T03:31:57.748Z,0
2018-03-11T03:32:57.485Z,0
2018-03-11T03:33:57.760Z,0
2018-03-11T03:34:57.517Z,0
2018-03-11T03:35:57.539Z,0
2018-03-11T03:36:57.804Z,0
2018-03-11T03:37:57.319Z,0
2018-03-11T03:38:58.094Z,0
2018-03-11T03:39:57.657Z,0
2018-03-11T03:40:57.623Z,0
2018-03-11T03:41:57.638Z,0
2018-03-11T03:42:57.643Z,0
2018-03-11T03:43:57.913Z,0
2018-03-11T03:44:57.780Z,0
2018-03-11T03:45:57.445Z,0
2018-03-11T03:46:57.478Z,0
2018-03-11T03:47:58.005Z,0
2018-03-11T03:48:58.287Z,0
2018-03-11T03:49:57.791Z,0
2018-03-11T03:50:57.549Z,0
2018-03-11T03:51:57.819Z,0
2018-03-11T03:52:58.364Z,0
2018-03-11T03:53:58.121Z,0
2018-03-11T03:54:58.428Z,0
2018-03-11T03:55:57.887Z,0
2018-03-11T03:56:58.400Z,0
2018-03-11T03:57:58.171Z,0
2018-03-11T03:58:57.681Z,0
2018-03-11T03:59:58.456Z,0
2018-03-11T04:00:57.982Z,0
2018-03-11T04:01:57.981Z,0
2018-03-11T04:02:58.565Z,0
2018-03-11T04:03:58.531Z,0
2018-03-11T04:04:58.540Z,0
2018-03-11T04:05:58.312Z,0
2018-03-11T04:06:58.332Z,0
2018-03-11T04:07:58.354Z,0
2018-03-11T04:08:58.124Z,0
2018-03-11T04:09:58.443Z,0
2018-03-11T04:10:58.149Z,0
2018-03-11T04:11:58.421Z,0
2018-03-11T04:12:58.430Z,0
2018-03-11T04:13:58.709Z,0
2018-03-11T04:14:58.479Z,0
2018-03-11T04:15:58.241Z,0
2018-03-11T04:16:58.255Z,0
2018-03-11T04:17:58.273Z,0
2018-03-11T04:18:58.551Z,0
2018-03-11T04:19:59.077Z,0
2018-03-11T04:20:58.324Z,0
2018-03-11T04:21:58.602Z,0
2018-03-11T04:22:58.346Z,0
2018-03-11T04:23:58.618Z,0
2018-03-11T04:24:58.684Z,0
2018-03-11T04:25:58.904Z,0
2018-03-11T04:26:58.671Z,0
2018-03-11T04:27:58.936Z,0
2018-03-11T04:28:58.956Z,0
2018-03-11T04:29:58.739Z,0
2018-03-11T04:30:58.753Z,0
2018-03-11T04:31:58.776Z,0
2018-03-11T04:32:58.536Z,0
2018-03-11T04:33:58.814Z,0
2018-03-11T04:34:58.825Z,0
2018-03-11T04:35:59.095Z,0
2018-03-11T04:36:58.857Z,0
2018-03-11T04:37:58.620Z,0
2018-03-11T04:38:58.886Z,0
2018-03-11T04:39:58.708Z,0
2018-03-11T04:40:59.177Z,0
2018-03-11T04:41:59.194Z,0
2018-03-11T04:42:58.704Z,0
2018-03-11T04:43:58.731Z,0
2018-03-11T04:44:58.744Z,0
2018-03-11T04:45:59.020Z,0
2018-03-11T04:46:58.777Z,0
2018-03-11T04:47:59.055Z,0
2018-03-11T04:48:59.070Z,0
2018-03-11T04:49:59.143Z,0
2018-03-11T04:50:58.876Z,0
2018-03-11T04:51:59.378Z,0
2018-03-11T04:52:59.143Z,0
2018-03-11T04:53:59.160Z,0
2018-03-11T04:54:59.187Z,0
2018-03-11T04:55:59.194Z,0
2018-03-11T04:56:59.209Z,0
2018-03-11T04:57:59.234Z,0
2018-03-11T04:58:59.508Z,0
2018-03-11T04:59:59.518Z,0
2018-03-11T05:00:59.536Z,0
2018-03-11T05:01:59.546Z,0
2018-03-11T05:02:58.806Z,0
2018-03-11T05:03:59.332Z,0
2018-03-11T05:04:59.147Z,0
2018-03-11T05:05:59.369Z,0
2018-03-11T05:06:59.394Z,0
2018-03-11T05:07:59.411Z,0
2018-03-11T05:08:59.674Z,0
2018-03-11T05:09:59.694Z,0
2018-03-11T05:10:59.463Z,0
2018-03-11T05:11:59.473Z,0
2018-03-11T05:12:59.748Z,0
2018-03-11T05:13:59.763Z,0
2018-03-11T05:14:59.578Z,0
2018-03-11T05:15:59.541Z,0
2018-03-11T05:16:59.561Z,0
2018-03-11T05:17:59.331Z,0
2018-03-11T05:18:59.596Z,0
2018-03-11T05:19:59.417Z,0
2018-03-11T05:20:59.373Z,0
2018-03-11T05:21:59.666Z,0
2018-03-11T05:22:59.407Z,0
2018-03-11T05:23:59.424Z,0
2018-03-11T05:24:59.714Z,0
2018-03-11T05:25:59.718Z,0
2018-03-11T05:26:59.744Z,0
2018-03-11T05:28:00.017Z,0
2018-03-11T05:29:00.038Z,0
2018-03-11T05:30:00.160Z,5
2018-03-11T05:31:00.060Z,5
2018-03-11T05:31:59.820Z,5
2018-03-11T05:32:59.334Z,5
2018-03-11T05:34:00.117Z,5
2018-03-11T05:35:00.187Z,5
2018-03-11T05:35:59.894Z,5
2018-03-11T05:36:59.914Z,5
2018-03-11T05:38:00.177Z,5
2018-03-11T05:38:59.943Z,5
2018-03-11T05:39:59.964Z,10
2018-03-11T05:41:00.239Z,10
2018-03-11T05:41:59.994Z,10
2018-03-11T05:43:00.017Z,10
2018-03-11T05:44:00.287Z,10
2018-03-11T05:45:00.053Z,10
2018-03-11T05:46:00.072Z,10
2018-03-11T05:47:00.336Z,10
2018-03-11T05:48:00.356Z,15
2018-03-11T05:49:00.113Z,15
2018-03-11T05:50:00.194Z,15
2018-03-11T05:51:00.195Z,15
2018-03-11T05:52:00.432Z,15
2018-03-11T05:53:00.434Z,20
2018-03-11T05:54:00.458Z,20
2018-03-11T05:55:00.470Z,20
2018-03-11T05:55:59.991Z,20
2018-03-11T05:57:00.263Z,25
2018-03-11T05:58:00.285Z,25
2018-03-11T05:59:00.302Z,25
2018-03-11T06:00:00.570Z,25
2018-03-11T06:01:00.338Z,30
2018-03-11T06:02:00.611Z,30
2018-03-11T06:03:00.621Z,35
2018-03-11T06:04:00.387Z,35
2018-03-11T06:05:00.663Z,40
2018-03-11T06:06:00.671Z,40
2018-03-11T06:07:00.740Z,40
2018-03-11T06:08:00.198Z,45
2018-03-11T06:09:00.216Z,45
2018-03-11T06:10:00.506Z,50
2018-03-11T06:11:00.761Z,50
2018-03-11T06:12:00.271Z,55
2018-03-11T06:13:00.791Z,55
2018-03-11T06:14:00.845Z,60
2018-03-11T06:15:00.322Z,60
2018-03-11T06:16:00.085Z,65
2018-03-11T06:17:00.650Z,65
2018-03-11T06:18:00.373Z,65
2018-03-11T06:19:00.392Z,70
2018-03-11T06:20:00.642Z,70
2018-03-11T06:21:00.422Z,75
2018-03-11T06:22:00.991Z,75
2018-03-11T06:23:00.720Z,80
2018-03-11T06:24:00.995Z,85
2018-03-11T06:25:00.754Z,85
2018-03-11T06:26:01.029Z,85
2018-03-11T06:27:00.783Z,85
2018-03-11T06:28:00.555Z,90
2018-03-11T06:29:00.823Z,90
2018-03-11T06:30:01.098Z,90
2018-03-11T06:31:00.863Z,90
2018-03-11T06:32:00.874Z,90
2018-03-11T06:33:00.645Z,90
2018-03-11T06:34:00.914Z,90
2018-03-11T06:35:00.928Z,85
2018-03-11T06:36:00.961Z,90
2018-03-11T06:37:01.280Z,95
2018-03-11T06:38:00.981Z,95
2018-03-11T06:39:01.117Z,95
2018-03-11T06:40:01.019Z,95
2018-03-11T06:41:01.036Z,95
2018-03-11T06:42:00.796Z,100
2018-03-11T06:43:00.834Z,105
2018-03-11T06:44:01.348Z,105
2018-03-11T06:45:01.358Z,105
2018-03-11T06:46:01.117Z,110
2018-03-11T06:47:00.891Z,115
2018-03-11T06:48:00.915Z,120
2018-03-11T06:49:00.932Z,125
2018-03-11T06:50:00.945Z,125
2018-03-11T06:51:01.233Z,130
2018-03-11T06:52:01.554Z,130
2018-03-11T06:53:01.015Z,135
2018-03-11T06:54:01.532Z,140
2018-03-11T06:55:01.043Z,140
2018-03-11T06:56:01.580Z,125
2018-03-11T06:57:01.433Z,125
2018-03-11T06:58:01.348Z,135
2018-03-11T06:59:01.638Z,135
2018-03-11T07:00:01.618Z,145
2018-03-11T07:01:01.640Z,145
2018-03-11T07:02:01.677Z,130
2018-03-11T07:03:01.446Z,130
2018-03-11T07:04:01.707Z,140
2018-03-11T07:05:01.729Z,150
2018-03-11T07:06:01.503Z,155
2018-03-11T07:07:01.843Z,145
2018-03-11T07:08:01.540Z,145
2018-03-11T07:09:01.557Z,145
2018-03-11T07:10:01.837Z,155
2018-03-11T07:11:01.400Z,140
2018-03-11T07:12:01.868Z,145
2018-03-11T07:13:01.375Z,145
2018-03-11T07:14:01.662Z,155
2018-03-11T07:15:01.924Z,160
2018-03-11T07:16:01.936Z,150
2018-03-11T07:17:01.718Z,155
2018-03-11T07:18:01.979Z,150
2018-03-11T07:19:01.734Z,150
2018-03-11T07:20:02.006Z,150
2018-03-11T07:21:01.779Z,150
2018-03-11T07:22:02.099Z,155
2018-03-11T07:23:01.559Z,160
2018-03-11T07:24:02.082Z,160
2018-03-11T07:25:01.850Z,160
2018-03-11T07:26:01.870Z,160
2018-03-11T07:27:02.150Z,165
2018-03-11T07:28:02.194Z,175
2018-03-11T07:29:01.161Z,180
2018-03-11T07:30:01.965Z,215
2018-03-11T07:31:01.968Z,200
2018-03-11T07:32:02.298Z,200
2018-03-11T07:33:02.262Z,200
2018-03-11T07:34:02.272Z,200
2018-03-11T07:35:02.041Z,235
2018-03-11T07:36:02.169Z,195
2018-03-11T07:37:02.135Z,205
2018-03-11T07:38:02.352Z,180
2018-03-11T07:39:02.126Z,180
2018-03-11T07:40:02.399Z,190
2018-03-11T07:41:02.416Z,180
2018-03-11T07:42:01.924Z,180
2018-03-11T07:43:02.230Z,170
2018-03-11T07:44:02.476Z,165
2018-03-11T07:45:01.977Z,170
2018-03-11T07:46:02.249Z,170
2018-03-11T07:47:02.275Z,170
2018-03-11T07:48:02.067Z,165
2018-03-11T07:49:02.329Z,160
2018-03-11T07:50:02.356Z,165
2018-03-11T07:51:02.350Z,165
2018-03-11T07:52:02.702Z,165
2018-03-11T07:53:02.388Z,160
2018-03-11T07:54:02.152Z,160
2018-03-11T07:55:02.674Z,160
2018-03-11T07:56:02.453Z,155
2018-03-11T07:57:02.192Z,155
2018-03-11T07:58:02.469Z,160
2018-03-11T07:59:02.497Z,160
2018-03-11T08:00:02.500Z,160
2018-03-11T08:01:02.549Z,160
2018-03-11T08:02:02.817Z,165
2018-03-11T08:03:02.330Z,165
2018-03-11T08:04:02.879Z,165
2018-03-11T08:05:02.374Z,165
2018-03-11T08:06:02.654Z,165
2018-03-11T08:07:02.715Z,165
2018-03-11T08:08:02.946Z,170
2018-03-11T08:09:02.455Z,170
2018-03-11T08:10:02.720Z,175
2018-03-11T08:11:02.729Z,180
2018-03-11T08:12:02.749Z,180
2018-03-11T08:13:03.023Z,180
2018-03-11T08:14:02.789Z,185
2018-03-11T08:15:02.814Z,185
2018-03-11T08:16:02.836Z,190
2018-03-11T08:17:03.126Z,195
2018-03-11T08:18:02.896Z,195
2018-03-11T08:19:02.918Z,200
2018-03-11T08:20:02.938Z,200
2018-03-11T08:21:03.212Z,200
2018-03-11T08:22:02.721Z,200
2018-03-11T08:23:03.188Z,205
2018-03-11T08:24:03.020Z,205
2018-03-11T08:25:02.778Z,205
2018-03-11T08:26:03.062Z,210
2018-03-11T08:27:02.810Z,210
2018-03-11T08:28:03.090Z,215
2018-03-11T08:29:03.376Z,220
2018-03-11T08:30:03.388Z,215
2018-03-11T08:31:03.148Z,220
2018-03-11T08:32:02.626Z,220
2018-03-11T08:33:03.183Z,220
2018-03-11T08:34:03.480Z,225
2018-03-11T08:35:03.251Z,220
2018-03-11T08:36:03.531Z,220
2018-03-11T08:37:03.557Z,220
2018-03-11T08:38:03.599Z,220
2018-03-11T08:39:03.297Z,220
2018-03-11T08:40:03.064Z,225
2018-03-11T08:41:03.583Z,220
2018-03-11T08:42:03.400Z,225
2018-03-11T08:43:03.145Z,225
2018-03-11T08:44:03.430Z,225
2018-03-11T08:45:03.453Z,230
2018-03-11T08:46:03.208Z,235
2018-03-11T08:47:03.762Z,230
2018-03-11T08:48:03.575Z,230
2018-03-11T08:49:03.528Z,230
2018-03-11T08:50:03.544Z,235
2018-03-11T08:51:03.569Z,235
2018-03-11T08:52:03.333Z,225
2018-03-11T08:53:03.633Z,225
2018-03-11T08:54:03.976Z,225
2018-03-11T08:55:03.644Z,225
2018-03-11T08:56:03.948Z,230
2018-03-11T08:57:03.951Z,230
2018-03-11T08:58:03.745Z,240
2018-03-11T08:59:03.739Z,240
2018-03-11T09:00:04.015Z,245
2018-03-11T09:01:04.036Z,245
2018-03-11T09:02:03.806Z,245
2018-03-11T09:03:04.186Z,250
2018-03-11T09:04:03.592Z,250
2018-03-11T09:05:04.040Z,250
2018-03-11T09:06:03.891Z,255
2018-03-11T09:07:03.933Z,260
2018-03-11T09:08:03.928Z,260
2018-03-11T09:09:04.208Z,260
2018-03-11T09:10:03.952Z,260
2018-03-11T09:11:03.976Z,275
2018-03-11T09:12:03.995Z,265
2018-03-11T09:13:04.018Z,265
2018-03-11T09:14:04.098Z,265
2018-03-11T09:15:04.105Z,265
2018-03-11T09:16:03.580Z,260
2018-03-11T09:17:04.353Z,260
2018-03-11T09:18:03.920Z,265
2018-03-11T09:19:04.400Z,265
2018-03-11T09:20:04.184Z,265
2018-03-11T09:21:04.187Z,270
2018-03-11T09:22:03.979Z,270
2018-03-11T09:23:03.989Z,275
2018-03-11T09:24:04.579Z,275
2018-03-11T09:25:03.803Z,280
2018-03-11T09:26:04.570Z,280
2018-03-11T09:27:04.340Z,280
2018-03-11T09:28:04.622Z,285
2018-03-11T09:29:04.536Z,295
2018-03-11T09:30:03.899Z,310
2018-03-11T09:31:04.686Z,285
2018-03-11T09:32:03.940Z,285
2018-03-11T09:33:03.962Z,280
2018-03-11T09:34:04.303Z,280
2018-03-11T09:35:04.367Z,275
2018-03-11T09:36:04.277Z,275
2018-03-11T09:37:04.556Z,285
2018-03-11T09:38:04.328Z,290
2018-03-11T09:39:04.344Z,300
2018-03-11T09:40:04.621Z,305
2018-03-11T09:41:04.386Z,315
2018-03-11T09:42:04.666Z,315
2018-03-11T09:43:04.958Z,310
2018-03-11T09:44:04.912Z,310
2018-03-11T09:45:04.235Z,315
2018-03-11T09:46:04.498Z,315
2018-03-11T09:47:04.523Z,320
2018-03-11T09:48:04.571Z,325
2018-03-11T09:49:04.646Z,335
2018-03-11T09:50:05.098Z,345
2018-03-11T09:51:04.608Z,350
2018-03-11T09:52:04.378Z,345
2018-03-11T09:53:04.152Z,375
2018-03-11T09:54:04.935Z,365
2018-03-11T09:55:04.952Z,330
2018-03-11T09:56:04.721Z,325
2018-03-11T09:57:04.978Z,335
2018-03-11T09:58:05.020Z,335
2018-03-11T09:59:04.799Z,345
2018-03-11T10:00:05.072Z,360
2018-03-11T10:01:05.099Z,380
2018-03-11T10:02:05.120Z,435
2018-03-11T10:03:05.212Z,455
2018-03-11T10:04:05.216Z,455
2018-03-11T10:05:04.663Z,450
2018-03-11T10:06:05.193Z,455
2018-03-11T10:07:05.220Z,415
2018-03-11T10:08:05.252Z,355
2018-03-11T10:09:05.036Z,350
2018-03-11T10:10:05.553Z,365
2018-03-11T10:11:04.813Z,385
2018-03-11T10:12:05.371Z,465
2018-03-11T10:13:05.635Z,415
2018-03-11T10:14:05.452Z,470
2018-03-11T10:15:05.172Z,780
2018-03-11T10:16:05.192Z,770
2018-03-11T10:17:05.467Z,950
2018-03-11T10:18:05.237Z,610
2018-03-11T10:19:05.543Z,460
2018-03-11T10:20:05.533Z,480
2018-03-11T10:21:05.051Z,650
2018-03-11T10:22:05.077Z,715
2018-03-11T10:23:05.860Z,465
2018-03-11T10:24:05.651Z,460
2018-03-11T10:25:05.151Z,440
2018-03-11T10:26:05.677Z,370
2018-03-11T10:27:05.974Z,355
2018-03-11T10:28:06.062Z,375
2018-03-11T10:29:05.560Z,350
2018-03-11T10:30:05.543Z,350
2018-03-11T10:31:05.820Z,340
2018-03-11T10:32:05.853Z,305
2018-03-11T10:33:05.862Z,295
2018-03-11T10:34:05.622Z,285
2018-03-11T10:35:05.896Z,280
2018-03-11T10:36:05.917Z,275
2018-03-11T10:37:05.695Z,275
2018-03-11T10:38:05.979Z,280
2018-03-11T10:39:06.003Z,285
2018-03-11T10:40:05.530Z,295
2018-03-11T10:41:05.800Z,305
2018-03-11T10:42:05.573Z,315
2018-03-11T10:43:05.847Z,325
2018-03-11T10:44:05.939Z,350
2018-03-11T10:45:05.650Z,405
2018-03-11T10:46:06.188Z,505
2018-03-11T10:47:06.201Z,450
2018-03-11T10:48:05.717Z,365
2018-03-11T10:49:06.519Z,355
2018-03-11T10:50:06.023Z,400
2018-03-11T10:51:06.464Z,380
2018-03-11T10:52:06.336Z,305
2018-03-11T10:53:06.355Z,295
2018-03-11T10:54:06.630Z,290
2018-03-11T10:55:06.411Z,300
2018-03-11T10:56:06.428Z,295
2018-03-11T10:57:06.198Z,310
2018-03-11T10:58:05.966Z,315
2018-03-11T10:59:06.038Z,305
2018-03-11T11:00:06.272Z,290
2018-03-11T11:01:06.288Z,285
2018-03-11T11:02:06.788Z,285
2018-03-11T11:03:06.812Z,285
2018-03-11T11:04:06.360Z,290
2018-03-11T11:05:06.905Z,300
2018-03-11T11:06:06.780Z,305
2018-03-11T11:07:06.692Z,305
2018-03-11T11:08:06.712Z,315
2018-03-11T11:09:06.745Z,310
2018-03-11T11:10:06.776Z,315
2018-03-11T11:11:06.817Z,325
2018-03-11T11:12:06.817Z,335
2018-03-11T11:13:06.845Z,355
2018-03-11T11:14:06.918Z,375
2018-03-11T11:15:06.854Z,395
2018-03-11T11:16:06.622Z,430
2018-03-11T11:17:07.160Z,455
2018-03-11T11:18:06.931Z,480
2018-03-11T11:19:06.949Z,515
2018-03-11T11:20:07.268Z,565
2018-03-11T11:21:07.041Z,615
2018-03-11T11:22:06.802Z,630
2018-03-11T11:23:06.940Z,860
2018-03-11T11:24:07.372Z,1025
2018-03-11T11:25:07.138Z,1080
2018-03-11T11:26:06.397Z,1070
2018-03-11T11:27:06.934Z,840
2018-03-11T11:28:06.701Z,915
2018-03-11T11:29:07.285Z,705
2018-03-11T11:30:07.005Z,835
2018-03-11T11:31:07.053Z,1195
2018-03-11T11:32:07.574Z,1155
2018-03-11T11:33:07.114Z,1130
2018-03-11T11:34:07.366Z,595
2018-03-11T11:35:07.400Z,580
2018-03-11T11:36:07.170Z,595
2018-03-11T11:37:07.724Z,695
2018-03-11T11:38:07.482Z,690
2018-03-11T11:39:07.254Z,1020
2018-03-11T11:40:07.278Z,1190
2018-03-11T11:41:07.854Z,870
2018-03-11T11:42:07.590Z,825
2018-03-11T11:43:07.644Z,1025
2018-03-11T11:44:07.195Z,985
2018-03-11T11:45:07.172Z,740
2018-03-11T11:46:08.103Z,620
2018-03-11T11:47:07.739Z,550
2018-03-11T11:48:07.507Z,520
2018-03-11T11:49:07.839Z,485
2018-03-11T11:50:07.588Z,395
2018-03-11T11:51:07.595Z,380
2018-03-11T11:52:07.892Z,355
2018-03-11T11:53:08.161Z,345
2018-03-11T11:54:07.934Z,325
2018-03-11T11:55:07.705Z,315
2018-03-11T11:56:07.989Z,295
2018-03-11T11:57:08.022Z,285
2018-03-11T11:58:08.076Z,285
2018-03-11T11:59:08.333Z,295
2018-03-11T12:00:07.857Z,310
2018-03-11T12:01:08.129Z,340
2018-03-11T12:02:08.156Z,345
2018-03-11T12:03:07.932Z,395
2018-03-11T12:04:08.008Z,440
2018-03-11T12:05:07.993Z,465
2018-03-11T12:06:08.280Z,525
2018-03-11T12:07:08.121Z,530
2018-03-11T12:08:08.072Z,525
2018-03-11T12:09:08.375Z,545
2018-03-11T12:10:07.873Z,545
2018-03-11T12:11:08.410Z,585
2018-03-11T12:12:08.232Z,570
2018-03-11T12:13:08.204Z,575
2018-03-11T12:14:08.487Z,625
2018-03-11T12:15:08.783Z,735
2018-03-11T12:16:08.286Z,1230
2018-03-11T12:17:08.313Z,1455
2018-03-11T12:18:08.369Z,1750
2018-03-11T12:19:08.632Z,1165
2018-03-11T12:20:08.444Z,795
2018-03-11T12:21:08.423Z,865
2018-03-11T12:22:08.196Z,1015
2018-03-11T12:23:08.228Z,1130
2018-03-11T12:24:08.263Z,1610
2018-03-11T12:25:09.044Z,2265
2018-03-11T12:26:08.804Z,2120
2018-03-11T12:27:08.595Z,2365
2018-03-11T12:28:09.140Z,2130
2018-03-11T12:29:08.916Z,1805
2018-03-11T12:30:08.689Z,1080
2018-03-11T12:31:09.251Z,1585
2018-03-11T12:32:08.752Z,1725
2018-03-11T12:33:09.040Z,1800
2018-03-11T12:34:09.072Z,1080
2018-03-11T12:35:09.153Z,1075
2018-03-11T12:36:09.398Z,790
2018-03-11T12:37:09.157Z,650
2018-03-11T12:38:09.195Z,620
2018-03-11T12:39:09.223Z,695
2018-03-11T12:40:09.511Z,765
2018-03-11T12:41:09.168Z,945
2018-03-11T12:42:09.563Z,665
2018-03-11T12:43:09.707Z,625
2018-03-11T12:44:09.388Z,840
2018-03-11T12:45:09.449Z,1200
2018-03-11T12:46:09.467Z,1250
2018-03-11T12:47:09.564Z,1245
2018-03-11T12:48:09.247Z,1050
2018-03-11T12:49:09.791Z,1080
2018-03-11T12:50:09.359Z,1320
2018-03-11T12:51:08.828Z,1350
2018-03-11T12:52:09.620Z,985
2018-03-11T12:53:09.733Z,1400
2018-03-11T12:54:09.688Z,1775
2018-03-11T12:55:09.689Z,1550
2018-03-11T12:56:10.015Z,1710
2018-03-11T12:57:10.032Z,2215
2018-03-11T12:58:09.984Z,1155
2018-03-11T12:59:09.598Z,1335
2018-03-11T13:00:10.134Z,1245
2018-03-11T13:01:09.711Z,880
2018-03-11T13:02:09.948Z,455
2018-03-11T13:03:09.969Z,345
2018-03-11T13:04:09.774Z,305
2018-03-11T13:05:09.837Z,285
2018-03-11T13:06:09.814Z,260
2018-03-11T13:07:09.836Z,245
2018-03-11T13:08:09.877Z,235
2018-03-11T13:09:10.414Z,220
2018-03-11T13:10:10.475Z,215
2018-03-11T13:11:09.973Z,205
2018-03-11T13:12:10.253Z,195
2018-03-11T13:13:09.524Z,185
2018-03-11T13:14:10.560Z,175
2018-03-11T13:15:10.085Z,170
2018-03-11T13:16:10.618Z,165
2018-03-11T13:17:10.394Z,165
2018-03-11T13:18:10.685Z,160
2018-03-11T13:19:10.448Z,155
2018-03-11T13:20:10.479Z,155
2018-03-11T13:21:10.304Z,145
2018-03-11T13:22:10.543Z,140
2018-03-11T13:23:10.059Z,140
2018-03-11T13:24:10.600Z,135
2018-03-11T13:25:10.370Z,130
2018-03-11T13:26:10.653Z,120
2018-03-11T13:27:10.456Z,115
2018-03-11T13:28:10.707Z,110
2018-03-11T13:29:10.735Z,100
2018-03-11T13:30:10.506Z,95
2018-03-11T13:31:10.300Z,85
2018-03-11T13:32:10.565Z,80
2018-03-11T13:33:11.324Z,75
2018-03-11T13:34:10.891Z,75
2018-03-11T13:35:11.150Z,75
2018-03-11T13:36:11.075Z,70
2018-03-11T13:37:10.686Z,65
2018-03-11T13:38:10.720Z,60
2018-03-11T13:39:11.266Z,60
2018-03-11T13:40:10.784Z,60
2018-03-11T13:41:11.404Z,60
2018-03-11T13:42:11.343Z,60
2018-03-11T13:43:11.325Z,60
2018-03-11T13:44:11.130Z,60
2018-03-11T13:45:10.906Z,65
2018-03-11T13:46:11.178Z,65
2018-03-11T13:47:11.463Z,65
2018-03-11T13:48:11.007Z,65
2018-03-11T13:49:11.262Z,65
2018-03-11T13:50:11.032Z,65
2018-03-11T13:51:11.367Z,65
2018-03-11T13:52:11.351Z,65
2018-03-11T13:53:11.363Z,65
2018-03-11T13:54:11.395Z,65
2018-03-11T13:55:11.187Z,65
2018-03-11T13:56:11.195Z,70
2018-03-11T13:57:11.787Z,70
2018-03-11T13:58:11.498Z,75
2018-03-11T13:59:11.535Z,75
2018-03-11T14:00:11.321Z,80
2018-03-11T14:01:11.912Z,80
2018-03-11T14:02:11.372Z,80
2018-03-11T14:03:11.624Z,80
2018-03-11T14:04:11.649Z,80
2018-03-11T14:05:11.948Z,80
2018-03-11T14:06:12.001Z,80
2018-03-11T14:07:11.980Z,80
2018-03-11T14:08:11.507Z,80
2018-03-11T14:09:11.527Z,80
2018-03-11T14:10:11.293Z,85
2018-03-11T14:11:11.887Z,90
2018-03-11T14:12:11.605Z,95